createdAt,value
2022-11-30T00:02:35.002Z,101892.81
2022-11-30T00:10:09.891Z,101881.97
2022-11-30T00:17:45.492Z,101889.91
2022-11-30T00:25:19.345Z,101890.69
2022-11-30T00:32:58.028Z,101888.88
2022-11-30T00:40:31.766Z,101890.69
2022-11-30T00:48:07.072Z,101885.41
2022-11-30T00:55:40.863Z,101891.53
2022-11-30T01:03:16.349Z,101904.66
2022-11-30T01:10:53.774Z,101904.59
2022-11-30T01:18:28.925Z,101902.69
2022-11-30T01:26:02.768Z,101915.91
2022-11-30T01:33:37.995Z,101913.97
2022-11-30T01:41:14.654Z,101917.63
2022-11-30T01:48:56.479Z,101921.75
2022-11-30T01:56:30.305Z,101922.75
2022-11-30T02:04:11.070Z,101919.00
2022-11-30T02:11:45.240Z,101924.22
2022-11-30T02:19:55.637Z,101915.22
2022-11-30T02:27:46.172Z,101928.63
2022-11-30T02:35:27.064Z,101927.44
2022-11-30T02:43:03.340Z,101922.78
2022-11-30T02:50:42.055Z,101926.25
2022-11-30T02:58:17.977Z,101929.53
2022-11-30T03:05:53.402Z,101937.56
2022-11-30T03:13:27.362Z,101944.53
2022-11-30T03:21:05.582Z,101942.50
2022-11-30T03:28:39.551Z,101935.47
2022-11-30T03:36:16.712Z,101942.41
2022-11-30T03:43:50.651Z,101942.31
2022-11-30T03:51:25.865Z,101950.25
2022-11-30T03:58:59.836Z,101958.00
2022-11-30T04:06:35.369Z,101960.56
2022-11-30T04:14:10.567Z,101962.50
2022-11-30T04:21:45.727Z,101967.69
2022-11-30T04:29:19.510Z,101963.94
2022-11-30T04:37:00.092Z,101974.41
2022-11-30T04:44:34.277Z,101983.19
2022-11-30T04:52:09.440Z,101989.34
2022-11-30T04:59:43.461Z,101988.47
2022-11-30T05:07:18.776Z,101994.56
2022-11-30T05:14:52.701Z,102002.31
2022-11-30T05:22:27.877Z,102001.31
2022-11-30T05:30:01.615Z,102015.34
2022-11-30T05:37:36.910Z,102014.25
2022-11-30T05:45:12.260Z,102024.75
2022-11-30T05:52:47.705Z,102022.00
2022-11-30T06:00:22.997Z,102026.38
2022-11-30T06:08:00.555Z,102036.41
2022-11-30T06:15:34.487Z,102033.38
2022-11-30T06:23:09.737Z,102038.66
2022-11-30T06:30:43.541Z,102039.59
2022-11-30T06:38:19.267Z,102051.97
2022-11-30T06:45:53.145Z,102059.91
2022-11-30T06:53:28.394Z,102062.56
2022-11-30T07:01:02.226Z,102071.31
2022-11-30T07:08:38.188Z,102078.50
2022-11-30T07:16:13.147Z,102081.16
2022-11-30T07:24:05.669Z,102091.91
2022-11-30T07:31:40.320Z,102104.34
2022-11-30T07:39:16.952Z,102106.88
2022-11-30T07:46:50.923Z,102112.28
2022-11-30T07:54:26.219Z,102115.91
2022-11-30T08:02:00.670Z,102117.75
2022-11-30T08:09:35.887Z,102108.16
2022-11-30T08:17:10.670Z,102126.94
2022-11-30T08:24:46.033Z,102129.88
2022-11-30T08:32:20.177Z,102127.41
2022-11-30T08:39:55.579Z,102131.91
2022-11-30T08:47:30.748Z,102143.56
2022-11-30T08:55:06.728Z,102146.50
2022-11-30T09:02:40.500Z,102149.25
2022-11-30T09:10:15.813Z,102139.69
2022-11-30T09:17:49.652Z,102155.19
2022-11-30T09:25:24.869Z,102152.94
2022-11-30T09:33:00.973Z,102149.91
2022-11-30T09:40:37.983Z,102143.38
2022-11-30T09:48:27.993Z,102148.38
2022-11-30T09:56:04.275Z,102138.06
2022-11-30T10:03:38.517Z,102142.00
2022-11-30T10:11:29.854Z,102139.53
2022-11-30T10:19:14.474Z,102143.44
2022-11-30T10:26:55.202Z,102147.38
2022-11-30T10:34:34.588Z,102139.22
2022-11-30T10:42:14.117Z,102133.44
2022-11-30T10:49:50.744Z,102141.75
2022-11-30T10:57:31.428Z,102139.72
2022-11-30T11:05:21.118Z,102128.41
2022-11-30T11:12:57.191Z,102137.34
2022-11-30T11:20:34.493Z,102136.22
2022-11-30T11:28:15.755Z,102145.41
2022-11-30T11:35:51.027Z,102147.53
2022-11-30T11:43:29.715Z,102146.78
2022-11-30T11:51:07.768Z,102149.75
2022-11-30T11:58:48.959Z,102140.13
2022-11-30T12:06:24.760Z,102152.72
2022-11-30T12:14:01.694Z,102151.97
2022-11-30T12:21:50.830Z,102154.88
2022-11-30T12:29:35.805Z,102150.66
2022-11-30T12:37:20.164Z,102159.03
2022-11-30T12:45:05.146Z,102159.84
2022-11-30T12:52:44.411Z,102161.69
2022-11-30T13:00:22.351Z,102164.44
2022-11-30T13:08:03.339Z,102159.66
2022-11-30T13:15:41.022Z,102156.94
2022-11-30T13:23:19.846Z,102160.16
2022-11-30T13:31:01.278Z,102165.38
2022-11-30T13:38:37.547Z,102162.81
2022-11-30T13:46:19.976Z,102162.56
2022-11-30T13:54:32.393Z,102162.59
2022-11-30T14:02:58.977Z,102179.66
2022-11-30T14:10:35.944Z,102186.06
2022-11-30T14:18:21.908Z,102187.66
2022-11-30T14:26:06.260Z,102196.47
2022-11-30T14:33:50.382Z,102212.50
2022-11-30T14:41:28.334Z,102221.00
2022-11-30T14:49:08.300Z,102221.25
2022-11-30T14:56:48.181Z,102228.75
2022-11-30T15:04:22.539Z,102232.47
2022-11-30T15:11:58.997Z,102245.88
2022-11-30T15:19:34.586Z,102255.22
2022-11-30T15:27:15.438Z,102255.81
2022-11-30T15:34:56.043Z,102269.22
2022-11-30T15:42:39.875Z,102267.03
2022-11-30T15:50:47.033Z,102268.00
2022-11-30T15:58:39.980Z,102284.84
2022-11-30T16:06:20.502Z,102279.28
2022-11-30T16:13:55.793Z,102293.19
2022-11-30T16:21:29.626Z,102291.03
2022-11-30T16:29:05.238Z,102303.72
2022-11-30T16:36:39.525Z,102299.59
2022-11-30T16:44:15.867Z,102308.22
2022-11-30T16:51:50.650Z,102302.25
2022-11-30T16:59:27.420Z,102318.75
2022-11-30T17:07:03.052Z,102319.66
2022-11-30T17:14:38.460Z,102319.88
2022-11-30T17:22:12.275Z,102328.69
2022-11-30T17:29:47.557Z,102333.53
2022-11-30T17:37:23.054Z,102331.56
2022-11-30T17:44:58.436Z,102338.75
2022-11-30T17:52:32.725Z,102350.19
2022-11-30T18:00:09.794Z,102345.88
2022-11-30T18:07:43.917Z,102346.59
2022-11-30T18:15:19.312Z,102355.38
2022-11-30T18:22:53.568Z,102361.44
2022-11-30T18:30:29.309Z,102373.50
2022-11-30T18:38:03.242Z,102370.97
2022-11-30T18:45:39.107Z,102376.69
2022-11-30T18:53:18.097Z,102376.13
2022-11-30T19:00:53.673Z,102377.28
2022-11-30T19:08:27.626Z,102386.34
2022-11-30T19:16:07.681Z,102389.09
2022-11-30T19:23:42.320Z,102393.44
2022-11-30T19:31:19.104Z,102395.16
2022-11-30T19:38:53.921Z,102405.13
2022-11-30T19:46:30.524Z,102408.88
2022-11-30T19:54:04.410Z,102413.78
2022-11-30T20:01:39.648Z,102421.03
2022-11-30T20:09:13.546Z,102432.16
2022-11-30T20:16:50.011Z,102440.59
2022-11-30T20:24:23.904Z,102449.66
2022-11-30T20:31:59.272Z,102442.56
2022-11-30T20:39:33.235Z,102445.16
2022-11-30T20:47:08.618Z,102446.53
2022-11-30T20:54:43.083Z,102447.13
2022-11-30T21:02:18.555Z,102451.81
2022-11-30T21:09:52.573Z,102445.59
2022-11-30T21:17:28.105Z,102450.16
2022-11-30T21:25:01.777Z,102461.63
2022-11-30T21:32:37.073Z,102470.78
2022-11-30T21:40:12.031Z,102461.06
2022-11-30T21:47:47.195Z,102460.00
2022-11-30T21:55:21.736Z,102461.03
2022-11-30T22:02:57.428Z,102459.72
2022-11-30T22:10:31.684Z,102469.88
2022-11-30T22:18:07.047Z,102475.09
2022-11-30T22:25:41.021Z,102476.91
2022-11-30T22:33:21.443Z,102480.94
2022-11-30T22:40:55.954Z,102481.63
2022-11-30T22:48:32.337Z,102476.25
2022-11-30T22:56:08.978Z,102470.25
2022-11-30T23:03:45.516Z,102461.53
2022-11-30T23:11:22.255Z,102448.84
2022-11-30T23:18:58.178Z,102446.88
2022-11-30T23:26:34.285Z,102448.59
2022-11-30T23:34:11.653Z,102454.69
2022-11-30T23:41:45.794Z,102448.03
2022-11-30T23:49:21.204Z,102448.97
2022-11-30T23:56:55.259Z,102451.84
